Time,TemperatureF,DewpointF,PressureIn,WindDirection,WindDirectionDegrees,WindSpeedMPH,WindSpeedGustMPH,Humidity,HourlyPrecipIn,Conditions,Clouds,dailyrainin,SolarRadiationWatts/m^2,SoftwareType,DateUTC
2013-06-16 00:00:00,67.0,59.0,-100.00,SSW,202,8.0,-999.0,77,-99.99,,,-99.99,0.000000,,2013-06-16 04:00:00,
2013-06-16 00:34:00,67.0,59.0,-100.00,SSW,202,8.0,-999.0,77,-99.99,,,-99.99,0.000000,,2013-06-16 04:34:00,
2013-06-16 00:43:00,67.0,59.0,-100.00,SSW,202,8.0,-999.0,77,-99.99,,,-99.99,0.000000,,2013-06-16 04:43:00,
2013-06-16 00:53:00,67.0,59.0,-100.00,SSW,202,8.0,-999.0,77,-99.99,,,-99.99,0.000000,,2013-06-16 04:53:00,
2013-06-16 01:00:00,66.0,59.0,-100.00,SSW,202,8.0,-999.0,78,-99.99,,,-99.99,0.000000,,2013-06-16 05:00:00,
2013-06-16 01:34:00,66.0,59.0,-100.00,SSW,202,8.0,-999.0,78,-99.99,,,-99.99,0.000000,,2013-06-16 05:34:00,
2013-06-16 01:43:00,66.0,59.0,-100.00,SSW,202,8.0,-999.0,78,-99.99,,,-99.99,0.000000,,2013-06-16 05:43:00,
2013-06-16 01:52:00,66.0,59.0,-100.00,SSW,202,8.0,-999.0,78,-99.99,,,-99.99,0.000000,,2013-06-16 05:52:00,
2013-06-16 02:00:00,66.0,60.0,-100.00,SSW,202,8.0,-999.0,81,-99.99,,,-99.99,0.000000,,2013-06-16 06:00:00,
2013-06-16 02:33:00,66.0,60.0,-100.00,SSW,202,8.0,-999.0,81,-99.99,,,-99.99,0.000000,,2013-06-16 06:33:00,
2013-06-16 02:43:00,66.0,60.0,-100.00,SSW,202,8.0,-999.0,81,-99.99,,,-99.99,0.000000,,2013-06-16 06:43:00,
2013-06-16 02:52:00,66.0,60.0,-100.00,SSW,202,8.0,-999.0,81,-99.99,,,-99.99,0.000000,,2013-06-16 06:52:00,
2013-06-16 03:00:00,64.0,61.0,-100.00,SSW,202,7.0,-999.0,89,0.02,,,-99.99,0.000000,,2013-06-16 07:00:00,
2013-06-16 03:33:00,64.0,61.0,-100.00,SSW,202,7.0,-999.0,89,0.02,,,-99.99,0.000000,,2013-06-16 07:33:00,
2013-06-16 03:43:00,64.0,61.0,-100.00,SSW,202,7.0,-999.0,89,0.02,,,-99.99,0.000000,,2013-06-16 07:43:00,
2013-06-16 03:53:00,64.0,61.0,-100.00,SSW,202,7.0,-999.0,89,0.02,,,-99.99,0.000000,,2013-06-16 07:53:00,
2013-06-16 04:00:00,63.0,62.0,-100.00,South,180,6.0,-999.0,95,0.16,,,-99.99,0.000000,,2013-06-16 08:00:00,
2013-06-16 04:34:00,63.0,62.0,-100.00,South,180,6.0,-999.0,95,0.16,,,-99.99,0.000000,,2013-06-16 08:34:00,
2013-06-16 04:43:00,63.0,62.0,-100.00,South,180,6.0,-999.0,95,0.16,,,-99.99,0.000000,,2013-06-16 08:43:00,
2013-06-16 04:54:00,63.0,62.0,-100.00,South,180,6.0,-999.0,95,0.16,,,-99.99,0.000000,,2013-06-16 08:54:00,
2013-06-16 05:00:00,63.0,63.0,-100.00,South,180,6.0,-999.0,98,0.11,,,-99.99,0.000000,,2013-06-16 09:00:00,
2013-06-16 05:33:00,63.0,63.0,-100.00,South,180,6.0,-999.0,98,0.11,,,-99.99,0.000000,,2013-06-16 09:33:00,
2013-06-16 05:43:00,63.0,63.0,-100.00,South,180,6.0,-999.0,98,0.11,,,-99.99,0.000000,,2013-06-16 09:43:00,
2013-06-16 05:52:00,63.0,63.0,-100.00,South,180,6.0,-999.0,98,0.11,,,-99.99,0.000000,,2013-06-16 09:52:00,
2013-06-16 06:00:00,64.0,64.0,-100.00,SW,225,6.0,-999.0,99,0.03,,,-99.99,0.000000,,2013-06-16 10:00:00,
2013-06-16 06:33:00,64.0,64.0,-100.00,SW,225,6.0,-999.0,99,0.03,,,-99.99,0.000000,,2013-06-16 10:33:00,
2013-06-16 06:43:00,64.0,64.0,-100.00,SW,225,6.0,-999.0,99,0.03,,,-99.99,0.000000,,2013-06-16 10:43:00,
2013-06-16 06:54:00,64.0,64.0,-100.00,SW,225,6.0,-999.0,99,0.03,,,-99.99,0.000000,,2013-06-16 10:54:00,
2013-06-16 07:00:00,65.0,64.0,-100.00,West,270,10.0,-999.0,96,0.01,,,-99.99,13.920000,,2013-06-16 11:00:00,
2013-06-16 07:34:00,65.0,64.0,-100.00,West,270,10.0,-999.0,96,0.01,,,-99.99,13.920000,,2013-06-16 11:34:00,
2013-06-16 07:43:00,65.0,64.0,-100.00,West,270,10.0,-999.0,96,0.01,,,-99.99,13.920000,,2013-06-16 11:43:00,
2013-06-16 07:53:00,65.0,64.0,-100.00,West,270,10.0,-999.0,96,0.01,,,-99.99,13.920000,,2013-06-16 11:53:00,
2013-06-16 08:00:00,65.0,63.0,-100.00,WNW,292,10.0,-999.0,94,-99.99,,,-99.99,29.000000,,2013-06-16 12:00:00,
2013-06-16 08:33:00,65.0,63.0,-100.00,WNW,292,10.0,-999.0,94,-99.99,,,-99.99,29.000000,,2013-06-16 12:33:00,
2013-06-16 08:43:00,65.0,63.0,-100.00,WNW,292,10.0,-999.0,94,-99.99,,,-99.99,29.000000,,2013-06-16 12:43:00,
2013-06-16 08:53:00,65.0,63.0,-100.00,WNW,292,10.0,-999.0,94,-99.99,,,-99.99,29.000000,,2013-06-16 12:53:00,
2013-06-16 09:00:00,65.0,63.0,-100.00,WNW,292,9.0,-999.0,94,-99.99,,,-99.99,70.760002,,2013-06-16 13:00:00,
2013-06-16 09:34:00,65.0,63.0,-100.00,WNW,292,9.0,-999.0,94,-99.99,,,-99.99,70.760002,,2013-06-16 13:34:00,
2013-06-16 09:43:00,65.0,63.0,-100.00,WNW,292,9.0,-999.0,94,-99.99,,,-99.99,70.760002,,2013-06-16 13:43:00,
2013-06-16 09:54:00,65.0,63.0,-100.00,WNW,292,9.0,-999.0,94,-99.99,,,-99.99,70.760002,,2013-06-16 13:54:00,
2013-06-16 10:00:00,68.0,64.0,-100.00,WNW,292,10.0,-999.0,87,-99.99,,,-99.99,310.880005,,2013-06-16 14:00:00,
2013-06-16 10:34:00,68.0,64.0,-100.00,WNW,292,10.0,-999.0,87,-99.99,,,-99.99,310.880005,,2013-06-16 14:34:00,
2013-06-16 10:44:00,68.0,64.0,-100.00,WNW,292,10.0,-999.0,87,-99.99,,,-99.99,310.880005,,2013-06-16 14:44:00,
2013-06-16 10:53:00,68.0,64.0,-100.00,WNW,292,10.0,-999.0,87,-99.99,,,-99.99,310.880005,,2013-06-16 14:53:00,
2013-06-16 11:00:00,70.0,64.0,-100.00,WNW,292,10.0,-999.0,81,-99.99,,,-99.99,531.280029,,2013-06-16 15:00:00,
2013-06-16 11:34:00,70.0,64.0,-100.00,WNW,292,10.0,-999.0,81,-99.99,,,-99.99,531.280029,,2013-06-16 15:34:00,
2013-06-16 11:43:00,70.0,64.0,-100.00,WNW,292,10.0,-999.0,81,-99.99,,,-99.99,531.280029,,2013-06-16 15:43:00,
2013-06-16 11:53:00,70.0,64.0,-100.00,WNW,292,10.0,-999.0,81,-99.99,,,-99.99,531.280029,,2013-06-16 15:53:00,
2013-06-16 12:00:00,72.0,64.0,-100.00,WNW,292,10.0,-999.0,76,-99.99,,,-99.99,690.200012,,2013-06-16 16:00:00,
2013-06-16 12:33:00,72.0,64.0,-100.00,WNW,292,10.0,-999.0,76,-99.99,,,-99.99,690.200012,,2013-06-16 16:33:00,
2013-06-16 12:43:00,72.0,64.0,-100.00,WNW,292,10.0,-999.0,76,-99.99,,,-99.99,690.200012,,2013-06-16 16:43:00,
2013-06-16 12:53:00,72.0,64.0,-100.00,WNW,292,10.0,-999.0,76,-99.99,,,-99.99,690.200012,,2013-06-16 16:53:00,
2013-06-16 13:00:00,75.0,64.0,-100.00,West,270,8.0,-999.0,70,-99.99,,,-99.99,827.080017,,2013-06-16 17:00:00,
2013-06-16 13:34:00,75.0,64.0,-100.00,West,270,8.0,-999.0,70,-99.99,,,-99.99,827.080017,,2013-06-16 17:34:00,
2013-06-16 13:43:00,75.0,64.0,-100.00,West,270,8.0,-999.0,70,-99.99,,,-99.99,827.080017,,2013-06-16 17:43:00,
2013-06-16 13:53:00,75.0,64.0,-100.00,West,270,8.0,-999.0,70,-99.99,,,-99.99,827.080017,,2013-06-16 17:53:00,
2013-06-16 14:00:00,77.0,64.0,-100.00,West,270,9.0,-999.0,65,-99.99,,,-99.99,842.159973,,2013-06-16 18:00:00,
2013-06-16 14:34:00,77.0,64.0,-100.00,West,270,9.0,-999.0,65,-99.99,,,-99.99,842.159973,,2013-06-16 18:34:00,
2013-06-16 14:43:00,77.0,64.0,-100.00,West,270,9.0,-999.0,65,-99.99,,,-99.99,842.159973,,2013-06-16 18:43:00,
2013-06-16 14:52:00,77.0,64.0,-100.00,West,270,9.0,-999.0,65,-99.99,,,-99.99,842.159973,,2013-06-16 18:52:00,
2013-06-16 15:00:00,78.0,64.0,-100.00,WSW,247,8.0,-999.0,61,-99.99,,,-99.99,738.919983,,2013-06-16 19:00:00,
2013-06-16 15:34:00,78.0,64.0,-100.00,WSW,247,8.0,-999.0,61,-99.99,,,-99.99,738.919983,,2013-06-16 19:34:00,
2013-06-16 15:43:00,78.0,64.0,-100.00,WSW,247,8.0,-999.0,61,-99.99,,,-99.99,738.919983,,2013-06-16 19:43:00,
2013-06-16 15:54:00,78.0,64.0,-100.00,WSW,247,8.0,-999.0,61,-99.99,,,-99.99,738.919983,,2013-06-16 19:54:00,
2013-06-16 16:00:00,80.0,61.0,-100.00,West,270,13.0,-999.0,51,-99.99,,,-99.99,696.000000,,2013-06-16 20:00:00,
2013-06-16 16:34:00,80.0,61.0,-100.00,West,270,13.0,-999.0,51,-99.99,,,-99.99,696.000000,,2013-06-16 20:34:00,
2013-06-16 16:43:00,80.0,61.0,-100.00,West,270,13.0,-999.0,51,-99.99,,,-99.99,696.000000,,2013-06-16 20:43:00,
2013-06-16 16:53:00,80.0,61.0,-100.00,West,270,13.0,-999.0,51,-99.99,,,-99.99,696.000000,,2013-06-16 20:53:00,
2013-06-16 17:00:00,81.0,57.0,-100.00,West,270,15.0,-999.0,44,-99.99,,,-99.99,691.359985,,2013-06-16 21:00:00,
2013-06-16 17:33:00,81.0,57.0,-100.00,West,270,15.0,-999.0,44,-99.99,,,-99.99,691.359985,,2013-06-16 21:33:00,
2013-06-16 17:42:00,81.0,57.0,-100.00,West,270,15.0,-999.0,44,-99.99,,,-99.99,691.359985,,2013-06-16 21:42:00,
2013-06-16 17:53:00,81.0,57.0,-100.00,West,270,15.0,-999.0,44,-99.99,,,-99.99,691.359985,,2013-06-16 21:53:00,
2013-06-16 18:00:00,81.0,54.0,-100.00,West,270,15.0,-999.0,39,-99.99,,,-99.99,467.480011,,2013-06-16 22:00:00,
2013-06-16 18:32:00,81.0,54.0,-100.00,West,270,15.0,-999.0,39,-99.99,,,-99.99,467.480011,,2013-06-16 22:32:00,
2013-06-16 18:42:00,81.0,54.0,-100.00,West,270,15.0,-999.0,39,-99.99,,,-99.99,467.480011,,2013-06-16 22:42:00,
2013-06-16 18:52:00,81.0,54.0,-100.00,West,270,15.0,-999.0,39,-99.99,,,-99.99,467.480011,,2013-06-16 22:52:00,
2013-06-16 19:00:00,81.0,53.0,-100.00,West,270,16.0,-999.0,38,-99.99,,,-99.99,302.760010,,2013-06-16 23:00:00,
2013-06-16 19:32:00,81.0,53.0,-100.00,West,270,16.0,-999.0,38,-99.99,,,-99.99,302.760010,,2013-06-16 23:32:00,
2013-06-16 19:42:00,81.0,53.0,-100.00,West,270,16.0,-999.0,38,-99.99,,,-99.99,302.760010,,2013-06-16 23:42:00,
2013-06-16 19:52:00,81.0,53.0,-100.00,West,270,16.0,-999.0,38,-99.99,,,-99.99,302.760010,,2013-06-16 23:52:00,
2013-06-16 21:00:00,76.0,50.0,-100.00,West,270,11.0,-999.0,40,-99.99,,,-99.99,78.879997,,2013-06-17 01:00:00,
2013-06-16 21:32:00,76.0,50.0,-100.00,West,270,11.0,-999.0,40,-99.99,,,-99.99,78.879997,,2013-06-17 01:32:00,
2013-06-16 21:43:00,76.0,50.0,-100.00,West,270,11.0,-999.0,40,-99.99,,,-99.99,78.879997,,2013-06-17 01:43:00,
2013-06-16 21:53:00,76.0,50.0,-100.00,West,270,11.0,-999.0,40,-99.99,,,-99.99,78.879997,,2013-06-17 01:53:00,
2013-06-16 22:00:00,70.0,54.0,-100.00,WSW,247,6.0,-999.0,56,-99.99,,,-99.99,2.320000,,2013-06-17 02:00:00,
2013-06-16 22:34:00,70.0,54.0,-100.00,WSW,247,6.0,-999.0,56,-99.99,,,-99.99,2.320000,,2013-06-17 02:34:00,
2013-06-16 22:43:00,70.0,54.0,-100.00,WSW,247,6.0,-999.0,56,-99.99,,,-99.99,2.320000,,2013-06-17 02:43:00,
2013-06-16 22:53:00,70.0,54.0,-100.00,WSW,247,6.0,-999.0,56,-99.99,,,-99.99,2.320000,,2013-06-17 02:53:00,
2013-06-16 23:00:00,69.0,57.0,-100.00,WSW,247,7.0,-999.0,64,-99.99,,,-99.99,0.000000,,2013-06-17 03:00:00,
2013-06-16 23:33:00,69.0,57.0,-100.00,WSW,247,7.0,-999.0,64,-99.99,,,-99.99,0.000000,,2013-06-17 03:33:00,
2013-06-16 23:44:00,69.0,57.0,-100.00,WSW,247,7.0,-999.0,64,-99.99,,,-99.99,0.000000,,2013-06-17 03:44:00,
2013-06-16 23:54:00,69.0,57.0,-100.00,WSW,247,7.0,-999.0,64,-99.99,,,-99.99,0.000000,,2013-06-17 03:54:00,